Megargel, AL (36457)

1:15 AM CDT on June 03, 2015 (GMT -0500)
KALFRISC2 | | Change Station
CLOSE
Current Station
Personal Weather Station
Location: Perdue Hill, AL
Elevation: 70 ft
Nearby Weather Stations

Elev 70 ft 31.58 °N, 87.49 °W | Updated 22 seconds ago

Partly Cloudy
Partly Cloudy
67.7 °F
Feels Like 67.7 °F
N
0.0
Wind Variable Wind from East
Gusts 0.0 mph

Today
High -- | Low -- °F
--% Chance of Precip.
Yesterday
High -- | Low -- °F
Precip. -- in
5:45 AM 7:50 PM
Full, 100% visible
Pressure 29.96 in
Visibility 8.0 miles
Clouds Clear
Dew Point 66 °F
Humidity 95%
Rainfall 0.00 in
Snow Depth Not available.
UV 0 out of 12
Pollen 3.80 out of 12
Air Quality Not available.
Flu Activity Sporadic
METAR KGZH 030553Z AUTO 00000KT 8SM CLR 21/19 A2997 RMK AO2 SLP146 T02060194 10283 20206 403110183 50005

More Conditions Fewer Conditions

Pressure 29.96 in
Visibility 8.0 miles
Clouds Clear
Dew Point 66 °F
Humidity 95%
Rainfall 0.00 in
Snow Depth Not available.
UV 0 out of 12
Pollen 3.80 out of 12
Air Quality Not available.
Flu Activity Sporadic
METAR KGZH 030553Z AUTO 00000KT 8SM CLR 21/19 A2997 RMK AO2 SLP146 T02060194 10283 20206 403110183 50005

More Conditions Fewer Conditions

10-Day Weather Forecast

×

Almanac

Astronomy

Jun. 03, 2015 Rise Set
Actual Time
Civil Twilight
Nautical Twilight
Astronomical Twilight
Moon
Length of Visible Light
Length of Day
Tomorrow will be .
, % of the Moon is Illuminated

Today's Extremes

State Highs State Lows

Community

WunderPhotos

Upload Photos

1,826,181 photos uploaded!

WunderBlogs® & News

Nearby

Air Quality

  Air Quality AQ Index Pollutant
Not available.

Snow Depth

Station Depth Elevation

Earthquake Activity

City Distance Mag. Time & Date
Minimum magnitude displayed is 2.5.

Coastal Water Temperatures

Place Temperature

Stations

Nearby Weather Stations

Station Location Temp. Windchill Dew Point Humidity Wind Precip. Elev Updated Type